createdAt,value
2022-08-12T00:00:51.386Z,2.90
2022-08-12T00:03:37.495Z,2.80
2022-08-12T00:06:23.590Z,3.10
2022-08-12T00:09:10.396Z,2.50
2022-08-12T00:11:56.401Z,3.00
2022-08-12T00:14:42.299Z,2.87
2022-08-12T00:17:28.356Z,3.20
2022-08-12T00:20:14.280Z,2.83
2022-08-12T00:23:07.381Z,3.40
2022-08-12T00:26:21.401Z,3.03
2022-08-12T00:29:02.318Z,2.80
2022-08-12T00:31:48.306Z,2.80
2022-08-12T00:34:34.947Z,2.83
2022-08-12T00:37:21.035Z,2.57
2022-08-12T00:40:11.492Z,2.50
2022-08-12T00:42:40.001Z,2.93
2022-08-12T00:45:07.418Z,2.80
2022-08-12T00:47:34.979Z,3.07
2022-08-12T00:50:02.380Z,2.77
2022-08-12T00:52:29.428Z,2.90
2022-08-12T00:55:00.648Z,2.93
2022-08-12T00:57:36.806Z,3.03
2022-08-12T01:00:11.925Z,2.73
2022-08-12T01:02:40.903Z,2.40
2022-08-12T01:05:28.600Z,2.87
2022-08-12T01:08:15.046Z,2.73
2022-08-12T01:11:02.030Z,3.00
2022-08-12T01:13:30.004Z,2.73
2022-08-12T01:15:58.538Z,2.87
2022-08-12T01:18:29.762Z,2.43
2022-08-12T01:21:06.570Z,2.87
2022-08-12T01:23:45.926Z,2.57
2022-08-12T01:26:16.761Z,3.20
2022-08-12T01:28:44.770Z,2.50
2022-08-12T01:31:16.187Z,2.83
2022-08-12T01:34:04.655Z,2.63
2022-08-12T01:36:36.730Z,2.40
2022-08-12T01:39:05.462Z,2.97
2022-08-12T01:41:33.845Z,2.90
2022-08-12T01:44:01.734Z,2.90
2022-08-12T01:46:40.347Z,2.87
2022-08-12T01:49:15.836Z,2.40
2022-08-12T01:52:15.128Z,2.70
2022-08-12T01:54:42.428Z,2.90
2022-08-12T01:57:10.859Z,2.57
2022-08-12T02:00:07.293Z,2.73
2022-08-12T02:02:40.082Z,2.83
2022-08-12T02:05:34.950Z,2.93
2022-08-12T02:08:29.610Z,2.53
2022-08-12T02:11:21.351Z,3.00
2022-08-12T02:14:07.133Z,2.93
2022-08-12T02:16:40.171Z,2.87
2022-08-12T02:19:22.503Z,3.00
2022-08-12T02:21:56.453Z,2.87
2022-08-12T02:24:24.461Z,2.90
2022-08-12T02:26:57.086Z,2.70
2022-08-12T02:29:24.775Z,3.53
2022-08-12T02:31:52.938Z,3.00
2022-08-12T02:34:21.769Z,3.20
2022-08-12T02:36:49.828Z,3.00
2022-08-12T02:39:16.905Z,3.03
2022-08-12T02:41:44.836Z,3.10
2022-08-12T02:44:15.082Z,3.10
2022-08-12T02:46:50.159Z,2.70
2022-08-12T02:49:24.067Z,3.13
2022-08-12T02:51:51.305Z,2.53
2022-08-12T02:54:18.567Z,3.10
2022-08-12T02:56:50.694Z,2.80
2022-08-12T02:59:19.789Z,2.87
2022-08-12T03:01:48.636Z,2.60
2022-08-12T03:04:43.090Z,2.70
2022-08-12T03:07:12.770Z,3.00
2022-08-12T03:10:04.480Z,2.80
2022-08-12T03:12:36.003Z,2.97
2022-08-12T03:15:18.002Z,3.37
2022-08-12T03:18:25.448Z,3.30
2022-08-12T03:20:42.131Z,3.30
2022-08-12T03:23:17.492Z,3.20
2022-08-12T03:25:58.679Z,3.30
2022-08-12T03:28:44.231Z,3.13
2022-08-12T03:31:11.325Z,3.33
2022-08-12T03:33:40.090Z,3.30
2022-08-12T03:36:08.135Z,3.23
2022-08-12T03:38:43.007Z,3.63
2022-08-12T03:41:31.405Z,3.37
2022-08-12T03:44:28.876Z,3.40
2022-08-12T03:47:24.129Z,3.37
2022-08-12T03:50:10.142Z,3.30
2022-08-12T03:52:56.074Z,3.50
2022-08-12T03:55:42.101Z,3.40
2022-08-12T03:58:28.052Z,3.70
2022-08-12T04:00:55.191Z,3.50
2022-08-12T04:03:41.533Z,3.50
2022-08-12T04:06:11.501Z,3.70
2022-08-12T04:08:39.329Z,3.70
2022-08-12T04:11:28.021Z,3.40
2022-08-12T04:14:05.972Z,4.10
2022-08-12T04:16:35.433Z,3.10
2022-08-12T04:19:03.064Z,3.40
2022-08-12T04:21:32.885Z,3.40
2022-08-12T04:24:00.499Z,3.20
2022-08-12T04:26:30.467Z,3.50
2022-08-12T04:28:58.957Z,3.40
2022-08-12T04:31:36.041Z,3.27
2022-08-12T04:34:03.766Z,3.57
2022-08-12T04:36:31.829Z,3.80
2022-08-12T04:38:59.734Z,3.70
2022-08-12T04:41:27.562Z,4.13
2022-08-12T04:44:01.135Z,3.20
2022-08-12T04:46:31.948Z,3.70
2022-08-12T04:49:02.717Z,4.30
2022-08-12T04:51:29.923Z,3.43
2022-08-12T04:53:57.234Z,3.60
2022-08-12T04:56:24.484Z,4.10
2022-08-12T04:58:52.749Z,4.00
2022-08-12T05:01:20.137Z,3.63
2022-08-12T05:03:47.441Z,3.70
2022-08-12T05:06:26.277Z,3.87
2022-08-12T05:08:54.990Z,4.00
2022-08-12T05:11:23.062Z,3.83
2022-08-12T05:13:51.351Z,3.77
2022-08-12T05:16:18.481Z,4.00
2022-08-12T05:18:57.070Z,4.63
2022-08-12T05:21:25.277Z,4.33
2022-08-12T05:23:52.290Z,4.90
2022-08-12T05:26:19.303Z,4.60
2022-08-12T05:28:46.347Z,5.50
2022-08-12T05:31:13.385Z,4.53
2022-08-12T05:33:40.805Z,4.10
2022-08-12T05:36:08.822Z,3.80
2022-08-12T05:38:55.391Z,3.90
2022-08-12T05:41:22.966Z,4.00
2022-08-12T05:43:51.376Z,3.67
2022-08-12T05:46:18.813Z,4.40
2022-08-12T05:48:45.845Z,3.30
2022-08-12T05:51:12.897Z,3.73
2022-08-12T05:53:40.269Z,3.93
2022-08-12T05:56:07.907Z,3.50
2022-08-12T05:58:34.975Z,3.67
2022-08-12T06:02:10.685Z,3.20
2022-08-12T06:03:49.761Z,3.73
2022-08-12T06:06:17.590Z,3.43
2022-08-12T06:08:48.515Z,3.30
2022-08-12T06:11:19.030Z,2.90
2022-08-12T06:13:53.728Z,3.27
2022-08-12T06:16:22.927Z,3.00
2022-08-12T06:18:50.088Z,3.30
2022-08-12T06:21:21.287Z,2.80
2022-08-12T06:23:48.222Z,3.57
2022-08-12T06:26:16.616Z,2.90
2022-08-12T06:28:43.715Z,3.07
2022-08-12T06:31:25.846Z,2.90
2022-08-12T06:34:01.061Z,2.80
2022-08-12T06:36:41.770Z,2.57
2022-08-12T06:39:15.070Z,3.20
2022-08-12T06:42:27.753Z,2.80
2022-08-12T06:44:50.261Z,3.40
2022-08-12T06:47:19.602Z,2.83
2022-08-12T06:49:46.569Z,2.70
2022-08-12T06:52:13.147Z,3.00
2022-08-12T06:54:44.166Z,3.47
2022-08-12T06:58:05.464Z,3.50
2022-08-12T06:59:57.373Z,3.17
2022-08-12T07:02:25.739Z,2.90
2022-08-12T07:04:52.647Z,2.83
2022-08-12T07:07:19.259Z,3.30
2022-08-12T07:10:01.263Z,2.83
2022-08-12T07:12:32.367Z,2.93
2022-08-12T07:15:01.493Z,2.70
2022-08-12T07:17:37.267Z,2.80
2022-08-12T07:20:11.663Z,2.43
2022-08-12T07:22:57.365Z,2.60
2022-08-12T07:25:40.424Z,3.10
2022-08-12T07:28:23.297Z,2.53
2022-08-12T07:30:52.586Z,2.70
2022-08-12T07:33:22.492Z,2.80
2022-08-12T07:35:50.552Z,2.63
2022-08-12T07:38:31.273Z,2.90
2022-08-12T07:41:14.557Z,2.87
2022-08-12T07:43:51.455Z,3.37
2022-08-12T07:46:22.505Z,2.63
2022-08-12T07:48:54.259Z,3.20
2022-08-12T07:51:25.144Z,2.90
2022-08-12T07:54:00.434Z,2.70
2022-08-12T07:56:30.975Z,3.03
2022-08-12T07:59:00.968Z,3.10
2022-08-12T08:01:28.062Z,2.83
2022-08-12T08:04:18.520Z,2.67
2022-08-12T08:06:46.033Z,2.97
2022-08-12T08:09:15.075Z,2.80
2022-08-12T08:12:00.278Z,2.90
2022-08-12T08:14:29.098Z,2.43
2022-08-12T08:16:58.078Z,2.70
2022-08-12T08:19:26.830Z,2.73
2022-08-12T08:21:54.862Z,2.77
2022-08-12T08:24:24.532Z,3.00
2022-08-12T08:26:53.350Z,2.73
2022-08-12T08:29:21.747Z,2.70
2022-08-12T08:31:59.942Z,2.70
2022-08-12T08:34:33.579Z,2.43
2022-08-12T08:37:17.318Z,2.60
2022-08-12T08:39:44.245Z,2.90
2022-08-12T08:42:29.434Z,2.43
2022-08-12T08:44:58.619Z,2.40
2022-08-12T08:47:25.797Z,2.80
2022-08-12T08:49:52.382Z,2.43
2022-08-12T08:52:39.585Z,2.73
2022-08-12T08:55:09.455Z,3.00
2022-08-12T08:57:43.945Z,2.50
2022-08-12T09:00:16.718Z,2.57
2022-08-12T09:02:49.355Z,2.30
2022-08-12T09:05:25.899Z,2.67
2022-08-12T09:10:40.711Z,2.30
2022-08-12T09:14:10.735Z,2.47
2022-08-12T09:16:21.153Z,2.50
2022-08-12T09:18:52.216Z,2.37
2022-08-12T09:21:20.175Z,2.60
2022-08-12T09:23:59.026Z,2.73
2022-08-12T09:26:29.315Z,2.38
2022-08-12T09:28:57.295Z,2.70
2022-08-12T09:32:07.711Z,2.42
2022-08-12T09:34:27.729Z,2.60
2022-08-12T09:37:01.418Z,2.58
2022-08-12T09:40:03.106Z,2.83
2022-08-12T09:42:44.007Z,2.30
2022-08-12T09:45:23.174Z,2.17
2022-08-12T09:47:59.136Z,2.40
2022-08-12T09:50:27.179Z,2.50
2022-08-12T09:53:15.094Z,2.50
2022-08-12T09:56:06.065Z,2.50
2022-08-12T09:58:58.169Z,2.65
2022-08-12T10:01:24.344Z,2.30
2022-08-12T10:04:03.161Z,2.25
2022-08-12T10:06:32.246Z,2.30
2022-08-12T10:09:06.834Z,2.92
2022-08-12T10:12:11.126Z,2.20
2022-08-12T10:14:40.656Z,2.40
2022-08-12T10:17:22.941Z,2.33
2022-08-12T10:19:52.893Z,2.33
2022-08-12T10:22:39.905Z,2.10
2022-08-12T10:26:34.687Z,2.30
2022-08-12T10:28:38.306Z,2.45
2022-08-12T10:31:06.084Z,2.70
2022-08-12T10:33:34.447Z,2.38
2022-08-12T10:36:21.259Z,2.15
2022-08-12T10:39:03.560Z,2.50
2022-08-12T10:42:08.860Z,2.67
2022-08-12T10:44:37.144Z,2.15
2022-08-12T10:47:26.540Z,2.42
2022-08-12T10:50:02.659Z,2.40
2022-08-12T10:52:38.908Z,2.15
2022-08-12T10:55:13.189Z,2.53
2022-08-12T10:58:14.317Z,2.00
2022-08-12T11:00:31.207Z,2.05
2022-08-12T11:04:34.344Z,2.28
2022-08-12T11:07:06.336Z,2.47
2022-08-12T11:08:43.494Z,2.10
2022-08-12T11:11:17.621Z,2.10
2022-08-12T11:13:49.088Z,2.33
2022-08-12T11:16:23.220Z,2.25
2022-08-12T11:18:54.975Z,2.30
2022-08-12T11:21:22.665Z,2.15
2022-08-12T11:24:25.655Z,1.92
2022-08-12T11:29:26.030Z,2.25
2022-08-12T11:32:01.759Z,2.10
2022-08-12T11:34:53.265Z,2.17
2022-08-12T11:37:24.830Z,2.25
2022-08-12T11:42:39.596Z,2.15
2022-08-12T11:45:11.071Z,2.20
2022-08-12T11:47:40.241Z,1.90
2022-08-12T11:50:07.841Z,1.95
2022-08-12T11:52:55.269Z,2.08
2022-08-12T11:55:23.066Z,2.10
2022-08-12T11:58:40.522Z,2.03
2022-08-12T12:03:45.674Z,2.05
2022-08-12T12:06:16.954Z,2.30
2022-08-12T12:08:49.757Z,1.98
2022-08-12T12:11:17.972Z,1.80
2022-08-12T12:14:08.432Z,1.90
2022-08-12T12:16:31.322Z,2.15
2022-08-12T12:19:00.357Z,2.10
2022-08-12T12:21:46.691Z,2.20
2022-08-12T12:24:13.626Z,2.13
2022-08-12T12:26:48.606Z,2.20
2022-08-12T12:30:17.614Z,2.17
2022-08-12T12:32:18.496Z,2.53
2022-08-12T12:35:17.878Z,2.10
2022-08-12T12:38:03.719Z,2.10
2022-08-12T12:40:19.096Z,1.90
2022-08-12T12:42:54.405Z,2.10
2022-08-12T12:45:26.070Z,2.00
2022-08-12T12:48:00.367Z,2.20
2022-08-12T12:50:45.611Z,2.05
2022-08-12T12:54:05.194Z,2.10
2022-08-12T12:56:15.215Z,2.00
2022-08-12T12:58:44.870Z,2.30
2022-08-12T13:01:26.674Z,2.30
2022-08-12T13:04:02.613Z,2.03
2022-08-12T13:06:31.725Z,2.33
2022-08-12T13:09:02.887Z,2.30
2022-08-12T13:11:41.635Z,2.10
2022-08-12T13:14:27.962Z,2.05
2022-08-12T13:16:55.207Z,2.55
2022-08-12T13:19:25.425Z,1.95
2022-08-12T13:22:18.445Z,1.90
2022-08-12T13:24:54.831Z,2.15
2022-08-12T13:27:28.266Z,2.00
2022-08-12T13:30:03.668Z,2.10
2022-08-12T13:32:41.517Z,2.00
2022-08-12T13:35:19.909Z,1.90
2022-08-12T13:37:57.587Z,2.08
2022-08-12T13:40:27.344Z,2.10
2022-08-12T13:42:58.027Z,2.10
2022-08-12T13:45:27.105Z,2.13
2022-08-12T13:47:56.944Z,2.08
2022-08-12T13:50:26.665Z,1.80
2022-08-12T13:52:53.349Z,1.80
2022-08-12T13:55:25.411Z,2.22
2022-08-12T13:58:01.718Z,1.95
2022-08-12T14:00:38.060Z,2.00
2022-08-12T14:03:06.144Z,2.20
2022-08-12T14:05:38.948Z,2.00
2022-08-12T14:08:07.828Z,2.00
2022-08-12T14:10:37.576Z,2.10
2022-08-12T14:14:02.623Z,1.90
2022-08-12T14:16:02.184Z,2.22
2022-08-12T14:18:32.821Z,2.28
2022-08-12T14:21:01.693Z,2.13
2022-08-12T14:24:08.063Z,2.20
2022-08-12T14:26:21.528Z,1.88
2022-08-12T14:29:01.748Z,2.08
2022-08-12T14:31:31.742Z,2.08
2022-08-12T14:33:59.577Z,1.95
2022-08-12T14:36:26.716Z,2.13
2022-08-12T14:38:54.935Z,2.20
2022-08-12T14:41:25.313Z,2.20
2022-08-12T14:44:13.008Z,1.90
2022-08-12T14:46:55.693Z,1.85
2022-08-12T14:50:00.784Z,1.88
2022-08-12T14:53:04.582Z,1.77
2022-08-12T14:57:57.255Z,1.92
2022-08-12T15:00:52.197Z,2.70
2022-08-12T15:03:23.190Z,2.10
2022-08-12T15:06:05.776Z,2.00
2022-08-12T15:08:43.538Z,2.88
2022-08-12T15:11:16.277Z,1.95
2022-08-12T15:13:49.387Z,1.88
2022-08-12T15:16:18.797Z,1.70
2022-08-12T15:18:50.729Z,1.98
2022-08-12T15:21:24.294Z,1.80
2022-08-12T15:23:55.432Z,1.90
2022-08-12T15:26:28.606Z,1.80
2022-08-12T15:28:56.523Z,2.20
2022-08-12T15:31:28.288Z,1.77
2022-08-12T15:34:10.945Z,2.00
2022-08-12T15:36:55.345Z,2.28
2022-08-12T15:39:22.488Z,2.00
2022-08-12T15:41:50.877Z,2.00
2022-08-12T15:44:38.842Z,1.80
2022-08-12T15:47:10.567Z,1.90
2022-08-12T15:49:54.181Z,1.90
2022-08-12T15:52:27.495Z,1.80
2022-08-12T15:54:58.380Z,1.90
2022-08-12T15:57:26.697Z,2.08
2022-08-12T16:00:06.798Z,2.00
2022-08-12T16:02:43.902Z,1.80
2022-08-12T16:06:12.068Z,1.90
2022-08-12T16:08:17.180Z,1.83
2022-08-12T16:10:46.707Z,1.80
2022-08-12T16:13:18.169Z,1.80
2022-08-12T16:16:02.313Z,2.10
2022-08-12T16:18:31.470Z,1.80
2022-08-12T16:20:58.253Z,2.00
2022-08-12T16:23:52.022Z,1.80
2022-08-12T16:26:14.670Z,1.80
2022-08-12T16:28:47.585Z,2.42
2022-08-12T16:31:22.812Z,1.95
2022-08-12T16:33:59.158Z,1.70
2022-08-12T16:36:30.990Z,1.83
2022-08-12T16:39:01.651Z,1.83
2022-08-12T16:41:39.761Z,1.83
2022-08-12T16:44:08.164Z,1.70
2022-08-12T16:46:36.165Z,1.73
2022-08-12T16:49:08.953Z,1.60
2022-08-12T16:51:41.886Z,1.58
2022-08-12T16:54:16.169Z,2.00
2022-08-12T16:56:54.770Z,1.88
2022-08-12T16:59:25.877Z,2.03
2022-08-12T17:01:57.550Z,1.92
2022-08-12T17:04:25.269Z,1.80
2022-08-12T17:06:52.519Z,2.20
2022-08-12T17:09:19.421Z,2.10
2022-08-12T17:11:49.158Z,1.80
2022-08-12T17:14:16.972Z,1.90
2022-08-12T17:16:45.575Z,1.90
2022-08-12T17:19:13.851Z,1.50
2022-08-12T17:22:01.846Z,1.92
2022-08-12T17:24:32.255Z,1.85
2022-08-12T17:27:00.754Z,1.67
2022-08-12T17:30:00.623Z,1.60
2022-08-12T17:32:16.129Z,1.70
2022-08-12T17:35:08.805Z,2.27
2022-08-12T17:37:37.231Z,1.77
2022-08-12T17:40:15.141Z,1.67
2022-08-12T17:42:43.725Z,1.80
2022-08-12T17:45:19.485Z,1.67
2022-08-12T17:48:01.904Z,1.70
2022-08-12T17:50:36.706Z,1.60
2022-08-12T17:53:05.406Z,1.70
2022-08-12T17:55:43.836Z,1.70
2022-08-12T17:58:13.800Z,1.70
2022-08-12T18:00:44.266Z,1.90
2022-08-12T18:03:57.480Z,2.30
2022-08-12T18:06:08.555Z,1.70
2022-08-12T18:08:43.225Z,1.80
2022-08-12T18:12:04.505Z,1.80
2022-08-12T18:14:27.966Z,1.70
2022-08-12T18:16:57.468Z,1.80
2022-08-12T18:19:27.728Z,1.77
2022-08-12T18:22:14.514Z,1.60
2022-08-12T18:24:41.938Z,1.83
2022-08-12T18:27:28.088Z,1.63
2022-08-12T18:29:55.816Z,1.50
2022-08-12T18:32:34.665Z,1.60
2022-08-12T18:35:11.236Z,1.60
2022-08-12T18:37:42.393Z,2.00
2022-08-12T18:40:28.700Z,1.60
2022-08-12T18:42:59.194Z,1.90
2022-08-12T18:45:31.584Z,1.60
2022-08-12T18:48:16.537Z,1.50
2022-08-12T18:50:49.938Z,1.70
2022-08-12T18:54:06.210Z,1.43
2022-08-12T18:56:06.601Z,1.67
2022-08-12T18:58:59.990Z,1.43
2022-08-12T19:02:19.335Z,1.40
2022-08-12T19:04:15.660Z,1.60
2022-08-12T19:06:46.679Z,1.93
2022-08-12T19:09:14.731Z,2.07
2022-08-12T19:12:01.002Z,2.60
2022-08-12T19:14:28.125Z,2.00
2022-08-12T19:16:57.768Z,2.37
2022-08-12T19:19:24.906Z,2.20
2022-08-12T19:21:56.671Z,1.90
2022-08-12T19:24:42.384Z,2.07
2022-08-12T19:27:11.577Z,2.27
2022-08-12T19:29:44.417Z,1.97
2022-08-12T19:32:31.503Z,1.90
2022-08-12T19:38:06.681Z,1.87
2022-08-12T19:40:37.348Z,2.00
2022-08-12T19:43:13.287Z,1.80
2022-08-12T19:45:49.649Z,1.90
2022-08-12T19:48:18.505Z,1.83
2022-08-12T19:50:49.886Z,2.50
2022-08-12T19:53:18.827Z,1.87
2022-08-12T19:55:50.860Z,1.90
2022-08-12T19:58:19.686Z,2.10
2022-08-12T20:00:53.179Z,2.03
2022-08-12T20:03:38.717Z,1.90
2022-08-12T20:06:16.294Z,1.80
2022-08-12T20:08:56.779Z,1.90
2022-08-12T20:12:14.315Z,1.90
2022-08-12T20:14:19.036Z,2.13
2022-08-12T20:16:51.708Z,1.77
2022-08-12T20:19:20.726Z,1.77
2022-08-12T20:21:47.344Z,2.00
2022-08-12T20:24:14.438Z,1.97
2022-08-12T20:26:42.523Z,2.10
2022-08-12T20:29:11.457Z,1.67
2022-08-12T20:31:39.628Z,2.40
2022-08-12T20:34:06.822Z,1.80
2022-08-12T20:36:41.077Z,2.10
2022-08-12T20:39:35.962Z,1.93
2022-08-12T20:42:04.014Z,1.80
2022-08-12T20:44:37.754Z,1.90
2022-08-12T20:47:19.976Z,2.10
2022-08-12T20:49:54.958Z,1.90
2022-08-12T20:52:24.418Z,2.10
2022-08-12T20:54:51.199Z,2.40
2022-08-12T20:57:19.386Z,2.00
2022-08-12T20:59:49.631Z,2.00
2022-08-12T21:02:18.374Z,1.80
2022-08-12T21:05:16.263Z,1.77
2022-08-12T21:07:47.809Z,2.20
2022-08-12T21:10:20.938Z,1.77
2022-08-12T21:12:48.410Z,2.10
2022-08-12T21:15:24.073Z,1.90
2022-08-12T21:18:11.842Z,2.07
2022-08-12T21:20:52.331Z,2.20
2022-08-12T21:23:21.476Z,1.90
2022-08-12T21:25:49.211Z,2.07
2022-08-12T21:28:20.328Z,1.83
2022-08-12T21:31:11.549Z,2.20
2022-08-12T21:34:06.338Z,2.23
2022-08-12T21:36:34.322Z,1.90
2022-08-12T21:39:19.141Z,1.90
2022-08-12T21:41:51.135Z,1.90
2022-08-12T21:44:24.289Z,1.87
2022-08-12T21:47:19.551Z,1.90
2022-08-12T21:49:55.657Z,1.70
2022-08-12T21:52:34.162Z,1.60
2022-08-12T21:55:02.821Z,1.90
2022-08-12T21:57:36.045Z,2.30
2022-08-12T22:00:17.499Z,1.77
2022-08-12T22:03:02.825Z,1.90
2022-08-12T22:05:49.230Z,2.20
2022-08-12T22:08:16.224Z,2.30
2022-08-12T22:10:51.076Z,2.23
2022-08-12T22:14:07.299Z,1.97
2022-08-12T22:16:06.611Z,1.90
2022-08-12T22:18:33.226Z,2.20
2022-08-12T22:20:59.960Z,1.97
2022-08-12T22:23:28.295Z,2.20
2022-08-12T22:26:15.944Z,2.37
2022-08-12T22:29:14.437Z,2.03
2022-08-12T22:31:43.890Z,1.83
2022-08-12T22:34:18.319Z,2.00
2022-08-12T22:36:45.547Z,1.83
2022-08-12T22:39:15.709Z,1.73
2022-08-12T22:42:01.352Z,1.80
2022-08-12T22:44:54.973Z,2.07
2022-08-12T22:47:45.887Z,1.90
2022-08-12T22:50:27.792Z,2.10
2022-08-12T22:53:14.910Z,2.00
2022-08-12T22:56:00.593Z,2.30
2022-08-12T22:58:32.139Z,1.90
2022-08-12T23:01:02.525Z,1.80
2022-08-12T23:03:48.004Z,1.80
2022-08-12T23:06:23.592Z,2.00
2022-08-12T23:08:51.478Z,1.90
2022-08-12T23:11:23.709Z,2.00
2022-08-12T23:13:56.250Z,2.17
2022-08-12T23:16:30.936Z,1.70
2022-08-12T23:19:10.704Z,1.93
2022-08-12T23:22:05.065Z,1.90
2022-08-12T23:24:53.834Z,2.03
2022-08-12T23:27:50.936Z,1.97
2022-08-12T23:30:31.040Z,1.70
2022-08-12T23:33:00.705Z,1.97
2022-08-12T23:35:53.872Z,1.97
2022-08-12T23:38:30.745Z,2.17
2022-08-12T23:41:01.603Z,2.00
2022-08-12T23:43:40.152Z,2.13
2022-08-12T23:46:09.018Z,1.90
2022-08-12T23:48:37.404Z,2.00
2022-08-12T23:51:21.441Z,2.07
2022-08-12T23:53:50.521Z,2.20
2022-08-12T23:56:17.730Z,1.97
2022-08-12T23:58:52.453Z,1.83
